sensor_id;sensor_type;location;lat;lon;timestamp;P1;durP1;ratioP1;P2;durP2;ratioP2
19623;SDS011;9959;49.798;9.928;2024-01-10T00:01:59;42.20;;;13.17;;
19623;SDS011;9959;49.798;9.928;2024-01-10T00:04:26;32.47;;;10.97;;
19623;SDS011;9959;49.798;9.928;2024-01-10T00:06:53;38.00;;;11.93;;
19623;SDS011;9959;49.798;9.928;2024-01-10T00:09:20;38.90;;;12.20;;
19623;SDS011;9959;49.798;9.928;2024-01-10T00:11:47;27.23;;;11.40;;
19623;SDS011;9959;49.798;9.928;2024-01-10T00:14:13;34.90;;;11.60;;
19623;SDS011;9959;49.798;9.928;2024-01-10T00:16:40;33.30;;;11.90;;
19623;SDS011;9959;49.798;9.928;2024-01-10T00:19:07;30.37;;;11.20;;
19623;SDS011;9959;49.798;9.928;2024-01-10T00:21:34;29.83;;;9.83;;
19623;SDS011;9959;49.798;9.928;2024-01-10T00:24:04;35.97;;;11.33;;
19623;SDS011;9959;49.798;9.928;2024-01-10T00:26:31;31.80;;;11.00;;
19623;SDS011;9959;49.798;9.928;2024-01-10T00:28:58;38.70;;;12.40;;
19623;SDS011;9959;49.798;9.928;2024-01-10T00:31:30;39.80;;;11.50;;
19623;SDS011;9959;49.798;9.928;2024-01-10T00:33:58;23.43;;;9.03;;
19623;SDS011;9959;49.798;9.928;2024-01-10T00:36:25;39.23;;;12.00;;
19623;SDS011;9959;49.798;9.928;2024-01-10T00:38:52;33.53;;;11.17;;
19623;SDS011;9959;49.798;9.928;2024-01-10T00:41:19;29.83;;;10.43;;
19623;SDS011;9959;49.798;9.928;2024-01-10T00:43:46;36.87;;;12.40;;
19623;SDS011;9959;49.798;9.928;2024-01-10T00:46:13;34.40;;;10.70;;
19623;SDS011;9959;49.798;9.928;2024-01-10T00:48:40;33.97;;;10.77;;
19623;SDS011;9959;49.798;9.928;2024-01-10T00:51:07;44.53;;;12.67;;
19623;SDS011;9959;49.798;9.928;2024-01-10T00:53:35;33.37;;;10.77;;
19623;SDS011;9959;49.798;9.928;2024-01-10T00:56:02;36.50;;;11.30;;
19623;SDS011;9959;49.798;9.928;2024-01-10T00:58:30;38.33;;;11.07;;
19623;SDS011;9959;49.798;9.928;2024-01-10T01:01:00;36.77;;;12.20;;
19623;SDS011;9959;49.798;9.928;2024-01-10T01:03:27;34.37;;;10.97;;
19623;SDS011;9959;49.798;9.928;2024-01-10T01:05:54;29.07;;;10.00;;
19623;SDS011;9959;49.798;9.928;2024-01-10T01:08:21;31.60;;;10.30;;
19623;SDS011;9959;49.798;9.928;2024-01-10T01:10:48;30.30;;;11.17;;
19623;SDS011;9959;49.798;9.928;2024-01-10T01:13:15;37.83;;;10.70;;
19623;SDS011;9959;49.798;9.928;2024-01-10T01:15:42;35.83;;;10.60;;
19623;SDS011;9959;49.798;9.928;2024-01-10T01:18:10;40.80;;;10.87;;
19623;SDS011;9959;49.798;9.928;2024-01-10T01:20:39;31.37;;;10.70;;
19623;SDS011;9959;49.798;9.928;2024-01-10T01:23:06;36.00;;;10.73;;
19623;SDS011;9959;49.798;9.928;2024-01-10T01:25:33;35.87;;;11.13;;
19623;SDS011;9959;49.798;9.928;2024-01-10T01:28:00;31.03;;;9.40;;
19623;SDS011;9959;49.798;9.928;2024-01-10T01:30:28;36.87;;;11.43;;
19623;SDS011;9959;49.798;9.928;2024-01-10T01:32:55;25.73;;;9.43;;
19623;SDS011;9959;49.798;9.928;2024-01-10T01:35:22;33.10;;;9.60;;
19623;SDS011;9959;49.798;9.928;2024-01-10T01:37:50;29.03;;;10.37;;
19623;SDS011;9959;49.798;9.928;2024-01-10T01:40:18;38.20;;;10.37;;
19623;SDS011;9959;49.798;9.928;2024-01-10T01:42:45;32.27;;;10.20;;
19623;SDS011;9959;49.798;9.928;2024-01-10T01:45:12;30.87;;;9.43;;
19623;SDS011;9959;49.798;9.928;2024-01-10T01:47:40;32.70;;;9.77;;
19623;SDS011;9959;49.798;9.928;2024-01-10T01:50:08;30.27;;;9.00;;
19623;SDS011;9959;49.798;9.928;2024-01-10T01:52:35;30.60;;;10.03;;
19623;SDS011;9959;49.798;9.928;2024-01-10T01:55:03;36.63;;;11.80;;
19623;SDS011;9959;49.798;9.928;2024-01-10T01:57:32;38.70;;;10.53;;
19623;SDS011;9959;49.798;9.928;2024-01-10T01:59:59;30.20;;;9.97;;
19623;SDS011;9959;49.798;9.928;2024-01-10T02:02:27;32.97;;;10.93;;
19623;SDS011;9959;49.798;9.928;2024-01-10T02:04:55;40.83;;;10.63;;
19623;SDS011;9959;49.798;9.928;2024-01-10T02:07:22;32.13;;;9.67;;
19623;SDS011;9959;49.798;9.928;2024-01-10T02:09:49;27.17;;;9.23;;
19623;SDS011;9959;49.798;9.928;2024-01-10T02:12:16;24.63;;;9.07;;
19623;SDS011;9959;49.798;9.928;2024-01-10T02:14:43;31.60;;;9.73;;
19623;SDS011;9959;49.798;9.928;2024-01-10T02:17:10;35.60;;;10.53;;
19623;SDS011;9959;49.798;9.928;2024-01-10T02:19:37;25.03;;;8.70;;
19623;SDS011;9959;49.798;9.928;2024-01-10T02:22:04;30.30;;;9.50;;
19623;SDS011;9959;49.798;9.928;2024-01-10T02:24:31;25.57;;;10.00;;
19623;SDS011;9959;49.798;9.928;2024-01-10T02:26:58;29.03;;;9.20;;
19623;SDS011;9959;49.798;9.928;2024-01-10T02:29:25;27.20;;;9.43;;
19623;SDS011;9959;49.798;9.928;2024-01-10T02:31:52;32.43;;;9.43;;
19623;SDS011;9959;49.798;9.928;2024-01-10T02:34:19;36.53;;;11.17;;
19623;SDS011;9959;49.798;9.928;2024-01-10T02:36:46;33.47;;;9.37;;
19623;SDS011;9959;49.798;9.928;2024-01-10T02:39:13;27.60;;;9.07;;
19623;SDS011;9959;49.798;9.928;2024-01-10T02:41:40;33.60;;;10.33;;
19623;SDS011;9959;49.798;9.928;2024-01-10T02:44:07;39.53;;;10.07;;
19623;SDS011;9959;49.798;9.928;2024-01-10T02:46:34;32.67;;;10.20;;
19623;SDS011;9959;49.798;9.928;2024-01-10T02:49:00;27.47;;;9.67;;
19623;SDS011;9959;49.798;9.928;2024-01-10T02:51:27;24.00;;;8.23;;
19623;SDS011;9959;49.798;9.928;2024-01-10T02:53:56;29.43;;;9.20;;
19623;SDS011;9959;49.798;9.928;2024-01-10T02:56:23;30.37;;;8.97;;
19623;SDS011;9959;49.798;9.928;2024-01-10T02:58:50;26.77;;;10.33;;
19623;SDS011;9959;49.798;9.928;2024-01-10T03:01:17;29.10;;;10.00;;
19623;SDS011;9959;49.798;9.928;2024-01-10T03:03:44;34.80;;;10.47;;
19623;SDS011;9959;49.798;9.928;2024-01-10T03:06:11;24.77;;;8.50;;
19623;SDS011;9959;49.798;9.928;2024-01-10T03:08:38;30.00;;;9.93;;
19623;SDS011;9959;49.798;9.928;2024-01-10T03:11:05;24.90;;;9.17;;
19623;SDS011;9959;49.798;9.928;2024-01-10T03:13:32;26.00;;;8.97;;
19623;SDS011;9959;49.798;9.928;2024-01-10T03:15:59;31.80;;;8.87;;
19623;SDS011;9959;49.798;9.928;2024-01-10T03:18:26;22.20;;;8.50;;
19623;SDS011;9959;49.798;9.928;2024-01-10T03:20:53;30.60;;;9.43;;
19623;SDS011;9959;49.798;9.928;2024-01-10T03:23:20;31.17;;;9.50;;
19623;SDS011;9959;49.798;9.928;2024-01-10T03:25:48;35.87;;;10.17;;
19623;SDS011;9959;49.798;9.928;2024-01-10T03:28:16;28.50;;;9.77;;
19623;SDS011;9959;49.798;9.928;2024-01-10T03:30:44;29.63;;;9.60;;
19623;SDS011;9959;49.798;9.928;2024-01-10T03:33:11;28.27;;;9.67;;
19623;SDS011;9959;49.798;9.928;2024-01-10T03:35:38;31.20;;;9.07;;
19623;SDS011;9959;49.798;9.928;2024-01-10T03:38:06;26.47;;;8.37;;
19623;SDS011;9959;49.798;9.928;2024-01-10T03:40:33;25.60;;;8.83;;
19623;SDS011;9959;49.798;9.928;2024-01-10T03:43:01;29.90;;;9.93;;
19623;SDS011;9959;49.798;9.928;2024-01-10T03:45:27;25.97;;;8.97;;
19623;SDS011;9959;49.798;9.928;2024-01-10T03:47:55;35.83;;;10.00;;
19623;SDS011;9959;49.798;9.928;2024-01-10T03:50:22;28.87;;;9.23;;
19623;SDS011;9959;49.798;9.928;2024-01-10T03:52:49;25.00;;;8.23;;
19623;SDS011;9959;49.798;9.928;2024-01-10T03:55:16;30.07;;;9.83;;
19623;SDS011;9959;49.798;9.928;2024-01-10T03:57:43;27.97;;;8.70;;
19623;SDS011;9959;49.798;9.928;2024-01-10T04:00:10;22.80;;;8.90;;
19623;SDS011;9959;49.798;9.928;2024-01-10T04:02:41;33.17;;;9.10;;
19623;SDS011;9959;49.798;9.928;2024-01-10T04:05:08;27.03;;;10.60;;
19623;SDS011;9959;49.798;9.928;2024-01-10T04:07:40;35.40;;;9.83;;
19623;SDS011;9959;49.798;9.928;2024-01-10T04:10:10;30.03;;;8.43;;
19623;SDS011;9959;49.798;9.928;2024-01-10T04:12:41;27.30;;;9.77;;
19623;SDS011;9959;49.798;9.928;2024-01-10T04:15:08;25.63;;;8.83;;
19623;SDS011;9959;49.798;9.928;2024-01-10T04:17:35;31.97;;;8.73;;
19623;SDS011;9959;49.798;9.928;2024-01-10T04:20:03;32.50;;;10.03;;
19623;SDS011;9959;49.798;9.928;2024-01-10T04:22:31;29.37;;;10.47;;
19623;SDS011;9959;49.798;9.928;2024-01-10T04:24:59;29.73;;;9.47;;
19623;SDS011;9959;49.798;9.928;2024-01-10T04:27:26;31.53;;;9.53;;
19623;SDS011;9959;49.798;9.928;2024-01-10T04:29:56;26.47;;;8.93;;
19623;SDS011;9959;49.798;9.928;2024-01-10T04:32:23;28.40;;;9.43;;
19623;SDS011;9959;49.798;9.928;2024-01-10T04:34:50;29.70;;;8.97;;
19623;SDS011;9959;49.798;9.928;2024-01-10T04:37:17;33.53;;;9.53;;
19623;SDS011;9959;49.798;9.928;2024-01-10T04:39:45;29.37;;;8.27;;
19623;SDS011;9959;49.798;9.928;2024-01-10T04:42:12;30.10;;;9.10;;
19623;SDS011;9959;49.798;9.928;2024-01-10T04:44:39;27.63;;;8.20;;
19623;SDS011;9959;49.798;9.928;2024-01-10T04:47:06;21.33;;;7.57;;
19623;SDS011;9959;49.798;9.928;2024-01-10T04:49:34;30.17;;;9.33;;
19623;SDS011;9959;49.798;9.928;2024-01-10T04:52:01;28.80;;;9.57;;
19623;SDS011;9959;49.798;9.928;2024-01-10T04:54:29;25.77;;;9.23;;
19623;SDS011;9959;49.798;9.928;2024-01-10T04:56:55;29.67;;;9.63;;
19623;SDS011;9959;49.798;9.928;2024-01-10T04:59:22;36.33;;;9.47;;
19623;SDS011;9959;49.798;9.928;2024-01-10T05:01:49;27.07;;;8.47;;
19623;SDS011;9959;49.798;9.928;2024-01-10T05:04:16;22.53;;;9.63;;
19623;SDS011;9959;49.798;9.928;2024-01-10T05:06:43;29.13;;;9.23;;
19623;SDS011;9959;49.798;9.928;2024-01-10T05:09:10;30.53;;;9.87;;
19623;SDS011;9959;49.798;9.928;2024-01-10T05:11:38;22.10;;;8.17;;
19623;SDS011;9959;49.798;9.928;2024-01-10T05:14:08;25.40;;;8.43;;
19623;SDS011;9959;49.798;9.928;2024-01-10T05:16:35;26.90;;;8.97;;
19623;SDS011;9959;49.798;9.928;2024-01-10T05:19:02;24.57;;;7.73;;
19623;SDS011;9959;49.798;9.928;2024-01-10T05:21:32;28.27;;;9.10;;
19623;SDS011;9959;49.798;9.928;2024-01-10T05:24:00;23.33;;;8.93;;
19623;SDS011;9959;49.798;9.928;2024-01-10T05:26:27;30.60;;;9.47;;
19623;SDS011;9959;49.798;9.928;2024-01-10T05:28:53;25.50;;;8.63;;
19623;SDS011;9959;49.798;9.928;2024-01-10T05:31:20;26.13;;;8.23;;
19623;SDS011;9959;49.798;9.928;2024-01-10T05:33:47;26.10;;;8.47;;
19623;SDS011;9959;49.798;9.928;2024-01-10T05:36:14;29.27;;;8.80;;
19623;SDS011;9959;49.798;9.928;2024-01-10T05:38:41;28.00;;;9.27;;
19623;SDS011;9959;49.798;9.928;2024-01-10T05:41:08;23.67;;;8.00;;
19623;SDS011;9959;49.798;9.928;2024-01-10T05:43:36;28.40;;;9.13;;
19623;SDS011;9959;49.798;9.928;2024-01-10T05:46:03;29.20;;;9.33;;
19623;SDS011;9959;49.798;9.928;2024-01-10T05:48:32;24.97;;;9.37;;
19623;SDS011;9959;49.798;9.928;2024-01-10T05:50:59;31.13;;;9.10;;
19623;SDS011;9959;49.798;9.928;2024-01-10T05:53:27;32.43;;;8.27;;
19623;SDS011;9959;49.798;9.928;2024-01-10T05:55:55;22.87;;;7.47;;
19623;SDS011;9959;49.798;9.928;2024-01-10T05:58:22;25.90;;;8.23;;
19623;SDS011;9959;49.798;9.928;2024-01-10T06:00:49;23.93;;;8.87;;
19623;SDS011;9959;49.798;9.928;2024-01-10T06:03:16;32.33;;;10.57;;
19623;SDS011;9959;49.798;9.928;2024-01-10T06:05:43;32.00;;;9.43;;
19623;SDS011;9959;49.798;9.928;2024-01-10T06:08:10;22.30;;;8.03;;
19623;SDS011;9959;49.798;9.928;2024-01-10T06:10:38;25.87;;;8.60;;
19623;SDS011;9959;49.798;9.928;2024-01-10T06:13:05;32.53;;;8.90;;
19623;SDS011;9959;49.798;9.928;2024-01-10T06:15:32;20.90;;;7.80;;
19623;SDS011;9959;49.798;9.928;2024-01-10T06:17:59;29.40;;;9.43;;
19623;SDS011;9959;49.798;9.928;2024-01-10T06:20:26;26.77;;;8.80;;
19623;SDS011;9959;49.798;9.928;2024-01-10T06:22:53;24.13;;;9.13;;
19623;SDS011;9959;49.798;9.928;2024-01-10T06:25:20;29.30;;;9.83;;
19623;SDS011;9959;49.798;9.928;2024-01-10T06:27:47;27.40;;;10.53;;
19623;SDS011;9959;49.798;9.928;2024-01-10T06:30:14;26.17;;;8.97;;
19623;SDS011;9959;49.798;9.928;2024-01-10T06:32:41;27.60;;;8.83;;
19623;SDS011;9959;49.798;9.928;2024-01-10T06:35:08;31.03;;;9.17;;
19623;SDS011;9959;49.798;9.928;2024-01-10T06:37:38;33.90;;;9.27;;
19623;SDS011;9959;49.798;9.928;2024-01-10T06:40:05;26.57;;;8.87;;
19623;SDS011;9959;49.798;9.928;2024-01-10T06:42:33;23.57;;;9.57;;
19623;SDS011;9959;49.798;9.928;2024-01-10T06:44:59;26.23;;;7.97;;
19623;SDS011;9959;49.798;9.928;2024-01-10T06:47:26;26.17;;;9.40;;
19623;SDS011;9959;49.798;9.928;2024-01-10T06:49:54;27.80;;;8.00;;
19623;SDS011;9959;49.798;9.928;2024-01-10T06:52:23;24.93;;;8.23;;
19623;SDS011;9959;49.798;9.928;2024-01-10T06:54:50;23.60;;;8.03;;
19623;SDS011;9959;49.798;9.928;2024-01-10T06:57:17;29.70;;;9.87;;
19623;SDS011;9959;49.798;9.928;2024-01-10T06:59:44;33.50;;;10.00;;
19623;SDS011;9959;49.798;9.928;2024-01-10T07:02:11;25.33;;;8.13;;
19623;SDS011;9959;49.798;9.928;2024-01-10T07:04:38;26.40;;;8.87;;
19623;SDS011;9959;49.798;9.928;2024-01-10T07:07:05;27.93;;;8.20;;
19623;SDS011;9959;49.798;9.928;2024-01-10T07:09:32;33.03;;;10.20;;
19623;SDS011;9959;49.798;9.928;2024-01-10T07:11:59;33.07;;;9.60;;
19623;SDS011;9959;49.798;9.928;2024-01-10T07:14:26;33.80;;;9.47;;
19623;SDS011;9959;49.798;9.928;2024-01-10T07:16:53;32.50;;;10.87;;
19623;SDS011;9959;49.798;9.928;2024-01-10T07:19:23;23.50;;;9.43;;
19623;SDS011;9959;49.798;9.928;2024-01-10T07:21:50;23.97;;;7.80;;
19623;SDS011;9959;49.798;9.928;2024-01-10T07:24:17;37.07;;;10.63;;
19623;SDS011;9959;49.798;9.928;2024-01-10T07:26:44;36.57;;;11.03;;
19623;SDS011;9959;49.798;9.928;2024-01-10T07:29:11;30.13;;;9.10;;
19623;SDS011;9959;49.798;9.928;2024-01-10T07:31:38;28.30;;;9.37;;
19623;SDS011;9959;49.798;9.928;2024-01-10T07:34:05;28.30;;;9.70;;
19623;SDS011;9959;49.798;9.928;2024-01-10T07:36:33;30.50;;;10.97;;
19623;SDS011;9959;49.798;9.928;2024-01-10T07:39:03;34.47;;;9.43;;
19623;SDS011;9959;49.798;9.928;2024-01-10T07:41:30;29.73;;;11.10;;
19623;SDS011;9959;49.798;9.928;2024-01-10T07:43:57;32.63;;;10.57;;
19623;SDS011;9959;49.798;9.928;2024-01-10T07:46:24;30.10;;;9.83;;
19623;SDS011;9959;49.798;9.928;2024-01-10T07:48:53;29.73;;;10.00;;
19623;SDS011;9959;49.798;9.928;2024-01-10T07:51:20;32.33;;;10.53;;
19623;SDS011;9959;49.798;9.928;2024-01-10T07:53:48;34.77;;;10.47;;
19623;SDS011;9959;49.798;9.928;2024-01-10T07:56:15;29.63;;;10.43;;
19623;SDS011;9959;49.798;9.928;2024-01-10T07:58:42;28.00;;;9.87;;
19623;SDS011;9959;49.798;9.928;2024-01-10T08:01:09;29.63;;;10.00;;
19623;SDS011;9959;49.798;9.928;2024-01-10T08:03:38;37.07;;;11.70;;
19623;SDS011;9959;49.798;9.928;2024-01-10T08:06:06;33.77;;;11.83;;
19623;SDS011;9959;49.798;9.928;2024-01-10T08:08:45;28.27;;;10.10;;
19623;SDS011;9959;49.798;9.928;2024-01-10T08:11:12;34.30;;;11.13;;
19623;SDS011;9959;49.798;9.928;2024-01-10T08:13:39;33.37;;;10.90;;
19623;SDS011;9959;49.798;9.928;2024-01-10T08:16:06;42.50;;;10.10;;
19623;SDS011;9959;49.798;9.928;2024-01-10T08:18:35;36.50;;;10.70;;
19623;SDS011;9959;49.798;9.928;2024-01-10T08:21:02;37.77;;;11.57;;
19623;SDS011;9959;49.798;9.928;2024-01-10T08:23:30;33.93;;;10.60;;
19623;SDS011;9959;49.798;9.928;2024-01-10T08:25:57;35.40;;;11.60;;
19623;SDS011;9959;49.798;9.928;2024-01-10T08:28:24;33.43;;;12.07;;
19623;SDS011;9959;49.798;9.928;2024-01-10T08:30:52;24.87;;;9.73;;
19623;SDS011;9959;49.798;9.928;2024-01-10T08:33:29;32.40;;;11.40;;
19623;SDS011;9959;49.798;9.928;2024-01-10T08:35:57;41.03;;;12.33;;
19623;SDS011;9959;49.798;9.928;2024-01-10T08:38:25;38.37;;;12.10;;
19623;SDS011;9959;49.798;9.928;2024-01-10T08:40:52;29.73;;;10.07;;
19623;SDS011;9959;49.798;9.928;2024-01-10T08:43:20;32.60;;;10.97;;
19623;SDS011;9959;49.798;9.928;2024-01-10T08:45:46;31.53;;;11.17;;
19623;SDS011;9959;49.798;9.928;2024-01-10T08:48:13;41.27;;;11.50;;
19623;SDS011;9959;49.798;9.928;2024-01-10T08:50:40;35.90;;;11.63;;
19623;SDS011;9959;49.798;9.928;2024-01-10T08:53:09;37.23;;;12.57;;
19623;SDS011;9959;49.798;9.928;2024-01-10T08:55:36;35.73;;;11.07;;
19623;SDS011;9959;49.798;9.928;2024-01-10T08:58:06;31.27;;;11.83;;
19623;SDS011;9959;49.798;9.928;2024-01-10T09:00:34;43.60;;;13.77;;
19623;SDS011;9959;49.798;9.928;2024-01-10T09:03:01;32.87;;;10.57;;
19623;SDS011;9959;49.798;9.928;2024-01-10T09:05:28;52.00;;;15.03;;
19623;SDS011;9959;49.798;9.928;2024-01-10T09:07:55;39.50;;;14.73;;
19623;SDS011;9959;49.798;9.928;2024-01-10T09:10:23;37.57;;;15.30;;
19623;SDS011;9959;49.798;9.928;2024-01-10T09:12:55;46.47;;;16.93;;
19623;SDS011;9959;49.798;9.928;2024-01-10T09:15:24;46.53;;;16.10;;
19623;SDS011;9959;49.798;9.928;2024-01-10T09:17:51;55.47;;;17.60;;
19623;SDS011;9959;49.798;9.928;2024-01-10T09:20:19;54.53;;;18.73;;
19623;SDS011;9959;49.798;9.928;2024-01-10T09:22:47;38.60;;;14.57;;
19623;SDS011;9959;49.798;9.928;2024-01-10T09:25:15;43.50;;;16.03;;
19623;SDS011;9959;49.798;9.928;2024-01-10T09:27:42;33.70;;;14.83;;
19623;SDS011;9959;49.798;9.928;2024-01-10T09:30:11;34.05;;;13.77;;
19623;SDS011;9959;49.798;9.928;2024-01-10T09:32:38;33.05;;;13.07;;
19623;SDS011;9959;49.798;9.928;2024-01-10T09:35:06;31.00;;;12.02;;
19623;SDS011;9959;49.798;9.928;2024-01-10T09:37:33;40.08;;;13.65;;
19623;SDS011;9959;49.798;9.928;2024-01-10T09:40:00;31.83;;;12.90;;
19623;SDS011;9959;49.798;9.928;2024-01-10T09:42:27;32.00;;;12.45;;
19623;SDS011;9959;49.798;9.928;2024-01-10T09:44:59;27.23;;;11.27;;
19623;SDS011;9959;49.798;9.928;2024-01-10T09:47:27;26.70;;;10.70;;
19623;SDS011;9959;49.798;9.928;2024-01-10T09:49:54;30.20;;;11.00;;
19623;SDS011;9959;49.798;9.928;2024-01-10T09:52:26;25.23;;;9.93;;
19623;SDS011;9959;49.798;9.928;2024-01-10T09:54:55;25.95;;;9.95;;
19623;SDS011;9959;49.798;9.928;2024-01-10T09:57:23;27.42;;;10.45;;
19623;SDS011;9959;49.798;9.928;2024-01-10T09:59:52;27.42;;;10.82;;
19623;SDS011;9959;49.798;9.928;2024-01-10T10:02:23;26.05;;;9.45;;
19623;SDS011;9959;49.798;9.928;2024-01-10T10:04:54;26.95;;;9.82;;
19623;SDS011;9959;49.798;9.928;2024-01-10T10:07:29;24.65;;;9.70;;
19623;SDS011;9959;49.798;9.928;2024-01-10T10:09:56;25.45;;;8.32;;
19623;SDS011;9959;49.798;9.928;2024-01-10T10:12:40;25.10;;;10.35;;
19623;SDS011;9959;49.798;9.928;2024-01-10T10:15:12;23.25;;;9.35;;
19623;SDS011;9959;49.798;9.928;2024-01-10T10:17:40;27.88;;;9.48;;
19623;SDS011;9959;49.798;9.928;2024-01-10T10:20:14;26.10;;;9.00;;
19623;SDS011;9959;49.798;9.928;2024-01-10T10:22:44;23.52;;;9.88;;
19623;SDS011;9959;49.798;9.928;2024-01-10T10:25:35;22.15;;;9.35;;
19623;SDS011;9959;49.798;9.928;2024-01-10T10:28:04;23.60;;;10.07;;
19623;SDS011;9959;49.798;9.928;2024-01-10T10:30:33;28.98;;;9.88;;
19623;SDS011;9959;49.798;9.928;2024-01-10T10:33:01;25.38;;;9.77;;
19623;SDS011;9959;49.798;9.928;2024-01-10T10:35:29;28.73;;;9.85;;
19623;SDS011;9959;49.798;9.928;2024-01-10T10:38:07;28.15;;;10.32;;
19623;SDS011;9959;49.798;9.928;2024-01-10T10:40:36;24.88;;;11.57;;
19623;SDS011;9959;49.798;9.928;2024-01-10T10:43:03;25.13;;;11.25;;
19623;SDS011;9959;49.798;9.928;2024-01-10T10:45:31;26.52;;;11.20;;
19623;SDS011;9959;49.798;9.928;2024-01-10T10:48:00;24.73;;;11.13;;
19623;SDS011;9959;49.798;9.928;2024-01-10T10:50:34;30.98;;;12.13;;
19623;SDS011;9959;49.798;9.928;2024-01-10T10:53:03;25.70;;;11.43;;
19623;SDS011;9959;49.798;9.928;2024-01-10T10:55:31;29.88;;;12.25;;
19623;SDS011;9959;49.798;9.928;2024-01-10T10:58:01;25.92;;;11.70;;
19623;SDS011;9959;49.798;9.928;2024-01-10T11:00:37;25.20;;;11.88;;
19623;SDS011;9959;49.798;9.928;2024-01-10T11:03:07;27.20;;;11.98;;
19623;SDS011;9959;49.798;9.928;2024-01-10T11:05:40;26.75;;;11.90;;
19623;SDS011;9959;49.798;9.928;2024-01-10T11:08:11;23.23;;;10.90;;
19623;SDS011;9959;49.798;9.928;2024-01-10T11:10:42;30.80;;;12.50;;
19623;SDS011;9959;49.798;9.928;2024-01-10T11:13:33;25.17;;;11.77;;
19623;SDS011;9959;49.798;9.928;2024-01-10T11:24:13;26.98;;;12.02;;
19623;SDS011;9959;49.798;9.928;2024-01-10T11:26:45;36.20;;;15.25;;
19623;SDS011;9959;49.798;9.928;2024-01-10T11:29:12;43.53;;;17.17;;
19623;SDS011;9959;49.798;9.928;2024-01-10T11:31:39;46.20;;;19.25;;
19623;SDS011;9959;49.798;9.928;2024-01-10T11:34:06;32.38;;;14.45;;
19623;SDS011;9959;49.798;9.928;2024-01-10T11:36:35;27.15;;;13.75;;
19623;SDS011;9959;49.798;9.928;2024-01-10T11:39:05;26.85;;;14.00;;
19623;SDS011;9959;49.798;9.928;2024-01-10T11:41:33;29.13;;;11.82;;
19623;SDS011;9959;49.798;9.928;2024-01-10T11:46:48;25.90;;;12.13;;
19623;SDS011;9959;49.798;9.928;2024-01-10T11:49:17;28.90;;;12.88;;
19623;SDS011;9959;49.798;9.928;2024-01-10T11:51:49;25.42;;;13.00;;
19623;SDS011;9959;49.798;9.928;2024-01-10T11:54:37;26.40;;;12.35;;
19623;SDS011;9959;49.798;9.928;2024-01-10T11:59:58;28.05;;;13.50;;
19623;SDS011;9959;49.798;9.928;2024-01-10T12:02:27;28.17;;;11.93;;
19623;SDS011;9959;49.798;9.928;2024-01-10T12:04:56;28.08;;;13.65;;
19623;SDS011;9959;49.798;9.928;2024-01-10T12:07:24;26.70;;;12.57;;
19623;SDS011;9959;49.798;9.928;2024-01-10T12:09:52;27.85;;;12.88;;
19623;SDS011;9959;49.798;9.928;2024-01-10T12:12:19;25.20;;;12.70;;
19623;SDS011;9959;49.798;9.928;2024-01-10T12:14:46;28.05;;;12.70;;
19623;SDS011;9959;49.798;9.928;2024-01-10T12:17:13;31.48;;;14.82;;
19623;SDS011;9959;49.798;9.928;2024-01-10T12:19:41;30.40;;;14.50;;
19623;SDS011;9959;49.798;9.928;2024-01-10T12:22:13;26.20;;;12.65;;
19623;SDS011;9959;49.798;9.928;2024-01-10T12:24:43;27.30;;;12.48;;
19623;SDS011;9959;49.798;9.928;2024-01-10T12:27:18;31.90;;;13.43;;
19623;SDS011;9959;49.798;9.928;2024-01-10T12:29:49;26.50;;;12.55;;
19623;SDS011;9959;49.798;9.928;2024-01-10T12:32:18;30.08;;;14.35;;
19623;SDS011;9959;49.798;9.928;2024-01-10T12:34:47;28.85;;;13.00;;
19623;SDS011;9959;49.798;9.928;2024-01-10T12:37:17;27.90;;;12.98;;
19623;SDS011;9959;49.798;9.928;2024-01-10T12:39:47;32.72;;;17.58;;
19623;SDS011;9959;49.798;9.928;2024-01-10T12:42:15;31.10;;;14.90;;
19623;SDS011;9959;49.798;9.928;2024-01-10T12:44:43;30.17;;;13.63;;
19623;SDS011;9959;49.798;9.928;2024-01-10T12:47:17;29.25;;;12.95;;
19623;SDS011;9959;49.798;9.928;2024-01-10T12:49:48;30.80;;;13.18;;
19623;SDS011;9959;49.798;9.928;2024-01-10T12:52:15;29.90;;;13.48;;
19623;SDS011;9959;49.798;9.928;2024-01-10T12:54:46;31.27;;;13.85;;
19623;SDS011;9959;49.798;9.928;2024-01-10T12:57:13;29.95;;;13.55;;
19623;SDS011;9959;49.798;9.928;2024-01-10T12:59:40;30.13;;;13.50;;
19623;SDS011;9959;49.798;9.928;2024-01-10T13:02:07;23.30;;;11.48;;
19623;SDS011;9959;49.798;9.928;2024-01-10T13:04:34;28.65;;;12.98;;
19623;SDS011;9959;49.798;9.928;2024-01-10T13:07:02;32.35;;;13.93;;
19623;SDS011;9959;49.798;9.928;2024-01-10T13:09:29;27.27;;;12.70;;
19623;SDS011;9959;49.798;9.928;2024-01-10T13:11:56;28.95;;;13.80;;
19623;SDS011;9959;49.798;9.928;2024-01-10T13:14:23;35.45;;;14.70;;
19623;SDS011;9959;49.798;9.928;2024-01-10T13:16:50;31.13;;;13.80;;
19623;SDS011;9959;49.798;9.928;2024-01-10T13:19:25;28.08;;;12.82;;
19623;SDS011;9959;49.798;9.928;2024-01-10T13:21:55;31.05;;;13.85;;
19623;SDS011;9959;49.798;9.928;2024-01-10T13:24:28;29.27;;;14.07;;
19623;SDS011;9959;49.798;9.928;2024-01-10T13:26:56;33.80;;;15.05;;
19623;SDS011;9959;49.798;9.928;2024-01-10T13:29:23;32.40;;;15.32;;
19623;SDS011;9959;49.798;9.928;2024-01-10T13:31:52;40.65;;;14.80;;
19623;SDS011;9959;49.798;9.928;2024-01-10T13:34:19;31.38;;;13.85;;
19623;SDS011;9959;49.798;9.928;2024-01-10T13:36:46;33.45;;;14.40;;
19623;SDS011;9959;49.798;9.928;2024-01-10T13:39:14;34.17;;;14.30;;
19623;SDS011;9959;49.798;9.928;2024-01-10T13:41:42;29.65;;;14.38;;
19623;SDS011;9959;49.798;9.928;2024-01-10T13:44:09;30.88;;;15.70;;
19623;SDS011;9959;49.798;9.928;2024-01-10T13:46:36;33.50;;;14.98;;
19623;SDS011;9959;49.798;9.928;2024-01-10T13:49:03;28.77;;;14.10;;
19623;SDS011;9959;49.798;9.928;2024-01-10T13:51:30;34.42;;;15.20;;
19623;SDS011;9959;49.798;9.928;2024-01-10T13:53:57;34.63;;;15.77;;
19623;SDS011;9959;49.798;9.928;2024-01-10T13:56:27;30.98;;;14.18;;
19623;SDS011;9959;49.798;9.928;2024-01-10T13:58:54;32.53;;;14.75;;
19623;SDS011;9959;49.798;9.928;2024-01-10T14:01:24;32.60;;;15.88;;
19623;SDS011;9959;49.798;9.928;2024-01-10T14:03:51;34.03;;;16.83;;
19623;SDS011;9959;49.798;9.928;2024-01-10T14:06:18;35.08;;;16.30;;
19623;SDS011;9959;49.798;9.928;2024-01-10T14:08:45;34.20;;;15.88;;
19623;SDS011;9959;49.798;9.928;2024-01-10T14:11:15;38.85;;;16.58;;
19623;SDS011;9959;49.798;9.928;2024-01-10T14:13:42;32.85;;;15.40;;
19623;SDS011;9959;49.798;9.928;2024-01-10T14:16:09;35.35;;;15.45;;
19623;SDS011;9959;49.798;9.928;2024-01-10T14:18:37;38.83;;;16.52;;
19623;SDS011;9959;49.798;9.928;2024-01-10T14:21:04;40.28;;;16.27;;
19623;SDS011;9959;49.798;9.928;2024-01-10T14:23:37;35.13;;;15.30;;
19623;SDS011;9959;49.798;9.928;2024-01-10T14:26:04;33.22;;;14.77;;
19623;SDS011;9959;49.798;9.928;2024-01-10T14:28:32;31.00;;;15.82;;
19623;SDS011;9959;49.798;9.928;2024-01-10T14:30:59;43.05;;;18.60;;
19623;SDS011;9959;49.798;9.928;2024-01-10T14:33:43;33.25;;;15.43;;
19623;SDS011;9959;49.798;9.928;2024-01-10T14:36:11;40.28;;;17.85;;
19623;SDS011;9959;49.798;9.928;2024-01-10T14:38:39;35.47;;;16.80;;
19623;SDS011;9959;49.798;9.928;2024-01-10T14:41:09;36.15;;;16.17;;
19623;SDS011;9959;49.798;9.928;2024-01-10T14:43:36;39.17;;;17.05;;
19623;SDS011;9959;49.798;9.928;2024-01-10T14:46:04;36.13;;;16.60;;
19623;SDS011;9959;49.798;9.928;2024-01-10T14:48:32;36.03;;;15.45;;
19623;SDS011;9959;49.798;9.928;2024-01-10T14:50:59;36.78;;;16.00;;
19623;SDS011;9959;49.798;9.928;2024-01-10T14:53:30;39.15;;;17.17;;
19623;SDS011;9959;49.798;9.928;2024-01-10T14:55:57;34.08;;;15.52;;
19623;SDS011;9959;49.798;9.928;2024-01-10T14:58:24;42.38;;;16.33;;
19623;SDS011;9959;49.798;9.928;2024-01-10T15:00:51;37.10;;;16.08;;